Wednesday, September 2, 2015, 10:47 AM EDT

KUNV, State College, University Park Airport

Location: State College, PA, United States Lat: 40.85
Local Time: 10:47 AM EDT (14:47 GMT) Lon: -77.85
Time Zone: US/Eastern Elev: 1240 ft

Show me the last for .
Show Decoded

2015-09-02 08:53 METAR KUNV 021253Z 00000KT 6SM BR SKC 20/19 A3012 =
2015-09-02 07:53 METAR KUNV 021153Z 00000KT 5SM BR SKC 18/17 A3012 =
2015-09-02 06:53 METAR KUNV 021053Z 00000KT 5SM BR BKN048 BKN060 18/17 A3011 =
2015-09-02 05:53 METAR KUNV 020953Z 00000KT 5SM BR BKN050 OVC065 18/17 A3010 =
2015-09-02 05:35 METAR KUNV 020935Z AUTO 00000KT 3SM BR BKN050 BKN060 BKN070 18/17 A3010 RMK AO2
                 T01760171 =
2015-09-02 05:15 METAR KUNV 020915Z AUTO 00000KT 4SM BR SCT060 SCT070 SCT100 18/17 A3009 RMK AO2
                 T01760171 =
2015-09-02 04:55 METAR KUNV 020855Z AUTO 00000KT 3SM BR SCT060 SCT070 18/17 A3009 RMK AO2
                 T01770173 =
2015-09-02 04:35 METAR KUNV 020835Z AUTO 00000KT 2 1/2SM BR SCT060 SCT070 SCT085 18/17 A3009 RMK
                 AO2 T01780173 =
2015-09-02 04:15 METAR KUNV 020815Z AUTO 00000KT 4SM BR SCT060 18/18 A3009 RMK AO2 T01810175 =
2015-09-02 03:55 METAR KUNV 020755Z AUTO 00000KT 3SM BR SCT075 18/17 A3009 RMK AO2 T01780174 =
2015-09-02 03:35 METAR KUNV 020735Z AUTO 00000KT 3SM BR SCT075 18/17 A3009 RMK AO2 T01760172 =
2015-09-02 03:15 METAR KUNV 020715Z AUTO 00000KT 7SM SCT070 SCT080 18/17 A3009 RMK AO2 T01830174
                 =
2015-09-02 02:55 METAR KUNV 020655Z AUTO 00000KT 7SM SCT065 SCT080 19/18 A3009 RMK AO2 T01900176
                 =
2015-09-02 02:35 METAR KUNV 020635Z AUTO 00000KT 7SM CLR 19/18 A3010 RMK AO2 T01880179 =
2015-09-02 02:15 METAR KUNV 020615Z AUTO 00000KT 2 1/2SM BR SCT110 19/18 A3010 RMK AO2 T01860182
                 =
2015-09-02 01:55 METAR KUNV 020555Z AUTO 00000KT 5SM BR SCT100 19/18 A3010 RMK AO2 T01900182
                 10256 20190 =
2015-09-02 01:35 METAR KUNV 020535Z AUTO 00000KT 5SM BR SCT075 SCT100 19/18 A3011 RMK AO2
                 T01930184 =
2015-09-02 01:15 METAR KUNV 020515Z AUTO 00000KT 7SM SCT100 20/18 A3011 RMK AO2 T01950184 =
2015-09-02 00:55 METAR KUNV 020455Z AUTO 00000KT 7SM SCT100 20/18 A3011 RMK AO2 T01960181 =
2015-09-02 00:35 METAR KUNV 020435Z AUTO 00000KT 7SM CLR 20/18 A3011 RMK AO2 T01960182 =
2015-09-02 00:15 METAR KUNV 020415Z AUTO 20003KT 7SM SCT095 20/18 A3011 RMK AO2 T01980183 =
2015-09-01 23:55 METAR KUNV 020355Z AUTO 00000KT 7SM CLR 20/18 A3011 RMK AO2 T02000184 402960174
                 =
2015-09-01 23:35 METAR KUNV 020335Z AUTO 00000KT 7SM CLR 21/19 A3011 RMK AO2 T02060188 =
2015-09-01 23:15 METAR KUNV 020315Z AUTO 00000KT 7SM CLR 21/19 A3011 RMK AO2 T02080188 =
2015-09-01 22:55 METAR KUNV 020255Z AUTO 00000KT 10SM CLR 22/19 A3011 RMK AO2 T02150190 =
2015-09-01 22:35 METAR KUNV 020235Z AUTO 00000KT 10SM CLR 21/19 A3010 RMK AO2 T02100185 =
2015-09-01 22:15 METAR KUNV 020215Z AUTO 00000KT 10SM CLR 21/19 A3010 RMK AO2 T02100185 =
2015-09-01 20:53 METAR KUNV 020053Z 00000KT 10SM SKC 24/18 A3010 =
2015-09-01 18:53 METAR KUNV 012253Z 00000KT 7SM SKC 28/18 A3007 =
2015-09-01 17:53 METAR KUNV 012153Z 33006KT 7SM FEW050 29/18 A3007 =
2015-09-01 16:53 METAR KUNV 012053Z 33006KT 10SM SCT050 29/18 A3008 =
2015-09-01 15:53 METAR KUNV 011953Z 00000KT 10SM SCT050 29/18 A3008 =
2015-09-01 14:53 METAR KUNV 011853Z 30005KT 10SM SCT040 29/18 A3010 =
2015-09-01 13:53 METAR KUNV 011753Z 26005KT 10SM SCT040 28/19 A3012 =
2015-09-01 12:53 METAR KUNV 011653Z 31008KT 10SM SCT035 28/19 A3012 =
2015-09-01 11:53 METAR KUNV 011553Z 00000KT 10SM SCT035 26/18 A3014 =
2015-09-01 10:53 METAR KUNV 011453Z 00000KT 10SM SKC 24/19 A3015 =

Support USWX by starting your Amazon purchase here.